Time;durP1;ratioP1;P1;durP2;ratioP2;P2;SDS_P1;SDS_P2;PMS_P1;PMS_P2;Temp;Humidity;BMP_temperature;BMP_pressure;BME280_temperature;BME280_humidity;BME280_pressure;Samples;Min_cycle;Max_cycle;Signal;HPM_P1;HPM_P2
2021/05/08 00:01:25;;;;;;;5.55;5.15;;;;;;;;;;5022755;28;20521;-84
2021/05/08 00:03:54;;;;;;;7.40;6.70;;;;;;;;;;5020159;28;20190;-82
2021/05/08 00:06:22;;;;;;;5.97;5.47;;;;;;;;;;5021094;28;20208;-82
2021/05/08 00:09:18;;;;;;;6.57;5.57;;;;;;;;;;5020682;28;20549;-84
2021/05/08 00:11:58;;;;;;;5.88;5.38;;;;;;;;;;5021476;28;20194;-84
2021/05/08 00:14:30;;;;;;;7.07;6.47;;;;;;;;;;5005060;28;20668;-83
2021/05/08 00:16:59;;;;;;;8.30;5.53;;;;;;;;;;5021832;28;20239;-84
2021/05/08 00:22:37;;;;;;;6.28;5.65;;;;;;;;;;5022208;28;20153;-84
2021/05/08 00:25:21;;;;;;;5.82;5.32;;;;;;;;;;5020829;28;20159;-84
2021/05/08 00:27:56;;;;;;;5.60;5.05;;;;;;;;;;5005463;28;20176;-84
2021/05/08 00:30:34;;;;;;;6.32;5.15;;;;;;;;;;5021121;28;20188;-84
2021/05/08 00:33:03;;;;;;;6.70;6.20;;;;;;;;;;5006086;28;20236;-82
2021/05/08 00:35:29;;;;;;;6.18;5.70;;;;;;;;;;5023217;28;20183;-82
2021/05/08 00:37:56;;;;;;;5.85;5.35;;;;;;;;;;5033875;28;20188;-83
2021/05/08 00:40:54;;;;;;;7.50;6.07;;;;;;;;;;5013499;28;20200;-83
2021/05/08 00:50:43;;;;;;;6.72;6.03;;;;;;;;;;5035130;28;20196;-84
2021/05/08 01:00:33;;;;;;;6.28;5.68;;;;;;;;;;5050456;28;20217;-83
2021/05/08 01:03:06;;;;;;;7.20;6.07;;;;;;;;;;5053912;28;20175;-84
2021/05/08 01:06:19;;;;;;;6.95;6.25;;;;;;;;;;5037942;28;20210;-83
2021/05/08 01:10:05;;;;;;;9.57;7.13;;;;;;;;;;5070800;22;20253;-85
2021/05/08 01:12:40;;;;;;;6.28;5.78;;;;;;;;;;5049124;28;20214;-83
2021/05/08 01:15:36;;;;;;;;;;;;;;;;;;;;;
2021/05/08 01:28:00;;;;;;;9.10;8.25;;;;;;;;;;2945041;23;20215;-85
2021/05/08 01:30:41;;;;;;;7.70;7.00;;;;;;;;;;5056844;28;20226;-85
2021/05/08 01:33:23;;;;;;;7.50;6.90;;;;;;;;;;5040879;28;20187;-87
2021/05/08 01:36:01;;;;;;;10.02;8.85;;;;;;;;;;5039772;28;20156;-85
2021/05/08 01:38:42;;;;;;;8.30;7.50;;;;;;;;;;5040198;28;20647;-84
2021/05/08 01:41:39;;;;;;;;;;;;;;;;;;;;;
2021/05/08 01:47:32;;;;;;;6.57;6.03;;;;;;;;;;5118481;22;20243;-87
2021/05/08 01:50:33;;;;;;;8.73;7.85;;;;;;;;;;5029083;28;20266;-87
2021/05/08 01:53:44;;;;;;;;;;;;;;;;;;;;;
2021/05/08 01:56:55;;;;;;;9.15;7.22;;;;;;;;;;5083227;28;20687;-87
2021/05/08 01:59:53;;;;;;;8.00;7.35;;;;;;;;;;5059700;23;20694;-84
2021/05/08 02:02:38;;;;;;;8.50;7.80;;;;;;;;;;5047512;28;20219;-83
2021/05/08 02:05:26;;;;;;;6.80;6.13;;;;;;;;;;5047616;28;20195;-82
2021/05/08 02:07:55;;;;;;;8.52;7.72;;;;;;;;;;5046859;28;20159;-82
2021/05/08 02:10:21;;;;;;;7.82;6.88;;;;;;;;;;5027644;28;20200;-83
2021/05/08 02:13:27;;;;;;;8.18;7.38;;;;;;;;;;5030232;28;20244;-86
2021/05/08 02:16:11;;;;;;;7.55;6.78;;;;;;;;;;5037354;28;20203;-84
2021/05/08 02:18:40;;;;;;;7.68;6.97;;;;;;;;;;5026455;28;20188;-83
2021/05/08 02:21:39;;;;;;;7.47;6.88;;;;;;;;;;5027230;28;20229;-83
2021/05/08 02:24:16;;;;;;;10.15;7.20;;;;;;;;;;5015676;28;20176;-83
2021/05/08 02:26:45;;;;;;;8.57;7.78;;;;;;;;;;5025098;28;20278;-84
2021/05/08 02:29:11;;;;;;;7.97;7.28;;;;;;;;;;5024938;28;20212;-83
2021/05/08 02:31:41;;;;;;;7.82;7.13;;;;;;;;;;5024728;28;20176;-83
2021/05/08 02:34:07;;;;;;;8.50;7.70;;;;;;;;;;5024849;28;20339;-82
2021/05/08 02:36:48;;;;;;;7.78;7.18;;;;;;;;;;5025722;28;20168;-81
2021/05/08 02:39:20;;;;;;;12.20;8.88;;;;;;;;;;5028491;28;20199;-84
2021/05/08 02:41:47;;;;;;;8.18;7.47;;;;;;;;;;5024966;28;20291;-83
2021/05/08 02:44:16;;;;;;;8.88;7.80;;;;;;;;;;5024911;28;20168;-83
2021/05/08 02:46:46;;;;;;;7.47;6.78;;;;;;;;;;5025646;28;20298;-84
2021/05/08 02:49:22;;;;;;;12.02;9.38;;;;;;;;;;5027135;28;20191;-83
2021/05/08 02:51:52;;;;;;;8.15;7.45;;;;;;;;;;5026437;28;20179;-82
2021/05/08 02:54:21;;;;;;;7.85;7.15;;;;;;;;;;5027686;28;20251;-83
2021/05/08 02:56:53;;;;;;;9.38;7.35;;;;;;;;;;5026965;28;20227;-84
2021/05/08 02:59:19;;;;;;;9.90;8.15;;;;;;;;;;5026785;28;20272;-82
2021/05/08 03:01:54;;;;;;;8.70;7.90;;;;;;;;;;5038920;28;20148;-82
2021/05/08 03:04:36;;;;;;;9.65;7.68;;;;;;;;;;5023897;28;20155;-81
2021/05/08 03:07:05;;;;;;;8.77;7.90;;;;;;;;;;5039468;28;20206;-82
2021/05/08 03:09:44;;;;;;;7.35;6.75;;;;;;;;;;5038995;28;20179;-82
2021/05/08 03:12:22;;;;;;;11.07;8.38;;;;;;;;;;5037769;28;20218;-83
2021/05/08 03:14:51;;;;;;;8.55;7.22;;;;;;;;;;5032582;28;20186;-83
2021/05/08 03:17:18;;;;;;;8.23;7.43;;;;;;;;;;5030343;28;20227;-82
2021/05/08 03:19:49;;;;;;;9.05;6.65;;;;;;;;;;5033189;28;20207;-82
2021/05/08 03:22:15;;;;;;;7.70;7.00;;;;;;;;;;5029256;28;20182;-83
2021/05/08 03:24:42;;;;;;;7.45;6.85;;;;;;;;;;5027512;28;20221;-83
2021/05/08 03:27:08;;;;;;;8.20;7.40;;;;;;;;;;5026686;28;20200;-82
2021/05/08 03:29:36;;;;;;;7.35;6.72;;;;;;;;;;5023730;28;20192;-81
2021/05/08 03:32:11;;;;;;;7.38;6.65;;;;;;;;;;5024258;28;20172;-82
2021/05/08 03:34:41;;;;;;;7.53;6.82;;;;;;;;;;5033660;28;20160;-81
2021/05/08 03:37:08;;;;;;;8.50;7.30;;;;;;;;;;5037062;28;20166;-82
2021/05/08 03:39:35;;;;;;;7.85;7.25;;;;;;;;;;5016978;28;20199;-84
2021/05/08 03:42:11;;;;;;;6.82;6.32;;;;;;;;;;5030451;28;20194;-83
2021/05/08 03:44:40;;;;;;;7.65;7.05;;;;;;;;;;5026832;28;20166;-83
2021/05/08 03:47:26;;;;;;;6.63;6.03;;;;;;;;;;5011365;28;20228;-83
2021/05/08 03:50:49;;;;;;;8.35;7.05;;;;;;;;;;5026765;28;20550;-82
2021/05/08 03:53:27;;;;;;;8.52;7.70;;;;;;;;;;5011062;28;20168;-83
2021/05/08 03:56:46;;;;;;;7.35;6.75;;;;;;;;;;5025818;28;20256;-83
2021/05/08 03:58:55;;;;;;;7.63;7.03;;;;;;;;;;5001537;28;20248;-83
2021/05/08 04:01:42;;;;;;;7.82;7.15;;;;;;;;;;5004816;28;20194;-84
2021/05/08 04:04:29;;;;;;;7.47;5.40;;;;;;;;;;5024162;28;20235;-85
2021/05/08 04:07:02;;;;;;;6.07;5.55;;;;;;;;;;5008474;28;20207;-84
2021/05/08 04:09:31;;;;;;;7.22;6.45;;;;;;;;;;5023898;28;20183;-84
2021/05/08 04:11:58;;;;;;;6.65;6.00;;;;;;;;;;5024530;28;20178;-84
2021/05/08 04:14:39;;;;;;;6.90;6.30;;;;;;;;;;5024566;28;20172;-84
2021/05/08 04:17:25;;;;;;;6.70;6.10;;;;;;;;;;5022813;28;20172;-83
2021/05/08 04:20:00;;;;;;;5.40;4.73;;;;;;;;;;5026580;28;20458;-83
2021/05/08 04:25:32;;;;;;;3.50;3.30;;;;;;;;;;5043610;28;20997;-84
2021/05/08 04:28:10;;;;;;;4.33;4.03;;;;;;;;;;5025898;28;20418;-85
2021/05/08 04:30:39;;;;;;;5.03;4.57;;;;;;;;;;5027484;28;20486;-83
2021/05/08 04:33:08;;;;;;;7.17;4.43;;;;;;;;;;5010790;28;20426;-84
2021/05/08 04:35:41;;;;;;;5.87;5.30;;;;;;;;;;5027995;28;20411;-83
2021/05/08 04:38:29;;;;;;;3.70;3.40;;;;;;;;;;5026764;28;20426;-84
2021/05/08 04:41:04;;;;;;;3.43;3.10;;;;;;;;;;5029249;28;20389;-84
2021/05/08 04:43:30;;;;;;;3.40;3.10;;;;;;;;;;5028695;28;20429;-82
2021/05/08 04:46:06;;;;;;;3.53;3.23;;;;;;;;;;5029771;28;20481;-84
2021/05/08 04:48:33;;;;;;;6.43;6.00;;;;;;;;;;5030120;28;20448;-82
2021/05/08 04:51:02;;;;;;;9.87;8.97;;;;;;;;;;5028272;28;20453;-81
2021/05/08 04:53:31;;;;;;;3.33;2.97;;;;;;;;;;5027521;28;20423;-83
2021/05/08 04:56:06;;;;;;;4.00;3.60;;;;;;;;;;5024650;28;20403;-83
2021/05/08 04:58:34;;;;;;;5.00;3.50;;;;;;;;;;5026212;28;20494;-83
2021/05/08 05:01:00;;;;;;;4.33;3.30;;;;;;;;;;5028117;28;20436;-83
2021/05/08 05:03:26;;;;;;;2.73;2.53;;;;;;;;;;5026708;28;20862;-82
2021/05/08 05:06:03;;;;;;;3.10;2.90;;;;;;;;;;5032843;28;20467;-82
2021/05/08 05:08:29;;;;;;;6.13;3.40;;;;;;;;;;5036429;28;20995;-84
2021/05/08 05:10:56;;;;;;;3.00;2.80;;;;;;;;;;5034012;28;20407;-82
2021/05/08 05:13:25;;;;;;;4.10;3.43;;;;;;;;;;5034970;28;20475;-83
2021/05/08 05:16:02;;;;;;;3.80;2.93;;;;;;;;;;5032426;28;20419;-83
2021/05/08 05:18:59;;;;;;;7.00;3.40;;;;;;;;;;5037578;28;20390;-83
2021/05/08 05:21:26;;;;;;;4.23;3.60;;;;;;;;;;5035453;28;20417;-84
2021/05/08 05:24:23;;;;;;;3.07;2.77;;;;;;;;;;5018020;28;20875;-84
2021/05/08 05:27:12;;;;;;;4.40;4.00;;;;;;;;;;5029574;28;20457;-83
2021/05/08 05:29:47;;;;;;;3.90;3.27;;;;;;;;;;5038031;28;20446;-82
2021/05/08 05:32:26;;;;;;;6.63;3.53;;;;;;;;;;5034004;28;20427;-81
2021/05/08 05:35:07;;;;;;;3.13;2.83;;;;;;;;;;5033555;28;20420;-83
2021/05/08 05:40:49;;;;;;;3.53;2.77;;;;;;;;;;5031044;28;20398;-84
2021/05/08 05:43:35;;;;;;;3.10;2.90;;;;;;;;;;5011407;28;20415;-84
2021/05/08 05:50:02;;;;;;;;;;;;;;;;;;;;;
2021/05/08 05:53:23;;;;;;;;;;;;;;;;;;;;;
2021/05/08 05:59:53;;;;;;;6.87;4.00;;;;;;;;;;5035712;28;20438;-84
2021/05/08 06:02:23;;;;;;;3.03;2.70;;;;;;;;;;5017667;28;20442;-84
2021/05/08 06:04:56;;;;;;;4.27;3.87;;;;;;;;;;5031899;28;20779;-83
2021/05/08 06:07:33;;;;;;;3.73;3.43;;;;;;;;;;5026026;28;20465;-84
2021/05/08 06:10:02;;;;;;;3.37;3.07;;;;;;;;;;5024441;28;20440;-84
2021/05/08 06:12:37;;;;;;;7.27;6.20;;;;;;;;;;5031442;28;20431;-83
2021/05/08 06:15:13;;;;;;;4.73;3.83;;;;;;;;;;5016691;28;20416;-82
2021/05/08 06:19:28;;;;;;;4.07;3.07;;;;;;;;;;5056645;28;20479;-83
2021/05/08 06:22:32;;;;;;;5.77;2.93;;;;;;;;;;5063947;28;20442;-86
2021/05/08 06:24:51;;;;;;;5.57;2.70;;;;;;;;;;5015833;28;20417;-83
2021/05/08 06:27:25;;;;;;;3.80;2.90;;;;;;;;;;5017999;28;20451;-85
2021/05/08 06:30:07;;;;;;;3.57;2.47;;;;;;;;;;4999226;28;20435;-85
2021/05/08 06:32:39;;;;;;;7.30;3.90;;;;;;;;;;5016421;28;20491;-84
2021/05/08 06:38:30;;;;;;;7.97;2.97;;;;;;;;;;5061988;28;20470;-85
2021/05/08 06:44:25;;;;;;;3.30;2.60;;;;;;;;;;5003683;28;20487;-85
2021/05/08 06:46:59;;;;;;;2.43;2.17;;;;;;;;;;5061890;28;20444;-84
2021/05/08 06:49:29;;;;;;;6.03;3.73;;;;;;;;;;5063129;28;20490;-85
2021/05/08 06:52:07;;;;;;;5.40;2.93;;;;;;;;;;5063876;28;20435;-85
2021/05/08 06:58:08;;;;;;;4.20;3.30;;;;;;;;;;5002880;28;20475;-84
2021/05/08 07:00:41;;;;;;;3.30;2.23;;;;;;;;;;5007354;28;20426;-84
2021/05/08 07:03:47;;;;;;;3.13;1.67;;;;;;;;;;4956278;28;20558;-85
2021/05/08 07:06:31;;;;;;;3.37;2.40;;;;;;;;;;4964179;28;20446;-85
2021/05/08 07:12:53;;;;;;;2.33;2.00;;;;;;;;;;4964484;28;20429;-85
2021/05/08 07:15:53;;;;;;;6.77;2.37;;;;;;;;;;4931033;29;20532;-86
2021/05/08 07:18:52;;;;;;;3.30;2.67;;;;;;;;;;4963272;29;21040;-86
2021/05/08 07:25:19;;;;;;;4.97;3.67;;;;;;;;;;4926440;29;20398;-84
2021/05/08 07:31:03;;;;;;;6.70;3.43;;;;;;;;;;5253996;22;20481;-86
2021/05/08 07:54:36;;;;;;;3.57;2.40;;;;;;;;;;5021326;28;20478;-86
2021/05/08 07:57:37;;;;;;;2.50;2.30;;;;;;;;;;5040291;28;20512;-86
2021/05/08 08:03:39;;;;;;;4.00;2.50;;;;;;;;;;5012598;28;20391;-84
2021/05/08 08:09:06;;;;;;;6.57;2.40;;;;;;;;;;5109559;22;20481;-84
2021/05/08 08:23:00;;;;;;;3.87;3.47;;;;;;;;;;5045381;28;20373;-87
2021/05/08 13:03:14;;;;;;;3.53;3.20;;;;;;;;;;5047566;28;20488;-86
2021/05/08 13:05:44;;;;;;;3.80;2.50;;;;;;;;;;5030634;28;20489;-85
2021/05/08 13:08:38;;;;;;;3.23;3.00;;;;;;;;;;5045634;28;20428;-89
2021/05/08 13:14:27;;;;;;;4.37;3.97;;;;;;;;;;5044274;28;20422;-86
2021/05/08 13:17:05;;;;;;;2.77;2.57;;;;;;;;;;5025885;28;20442;-86
2021/05/08 13:19:34;;;;;;;3.13;2.93;;;;;;;;;;5035576;28;20434;-86
2021/05/08 13:22:03;;;;;;;6.37;5.67;;;;;;;;;;5038936;28;20430;-87
2021/05/08 13:28:39;;;;;;;3.60;3.23;;;;;;;;;;5029312;28;20482;-88
2021/05/08 13:31:07;;;;;;;2.43;2.23;;;;;;;;;;5030001;28;20501;-87
2021/05/08 13:34:15;;;;;;;3.23;2.90;;;;;;;;;;5028816;28;20480;-86
2021/05/08 13:37:13;;;;;;;3.20;2.90;;;;;;;;;;5029501;28;20418;-86
2021/05/08 13:46:31;;;;;;;4.43;3.10;;;;;;;;;;5034119;23;20505;-87
2021/05/08 13:49:44;;;;;;;4.13;3.20;;;;;;;;;;5027012;28;20781;-87
2021/05/08 13:52:52;;;;;;;3.30;3.00;;;;;;;;;;5026794;28;20521;-87
2021/05/08 13:56:08;;;;;;;3.40;3.10;;;;;;;;;;5025625;28;20812;-88
2021/05/08 13:58:38;;;;;;;3.77;3.47;;;;;;;;;;5010865;28;20428;-87
2021/05/08 14:01:23;;;;;;;4.90;4.50;;;;;;;;;;5012854;28;20442;-88
2021/05/08 14:03:49;;;;;;;5.50;5.00;;;;;;;;;;5029491;28;20418;-87
2021/05/08 14:06:22;;;;;;;4.70;4.30;;;;;;;;;;5011979;28;20467;-88
2021/05/08 14:13:23;;;;;;;3.80;2.93;;;;;;;;;;5025772;28;20445;-87
2021/05/08 14:15:51;;;;;;;7.53;4.43;;;;;;;;;;5008945;28;20422;-87
2021/05/08 14:18:28;;;;;;;4.30;3.90;;;;;;;;;;5008077;28;20415;-85
2021/05/08 14:21:05;;;;;;;3.60;2.77;;;;;;;;;;4990951;28;20435;-89
2021/05/08 14:24:01;;;;;;;3.20;2.90;;;;;;;;;;5006801;28;20885;-86
2021/05/08 14:26:36;;;;;;;3.03;2.53;;;;;;;;;;5009824;28;20911;-86
2021/05/08 14:29:10;;;;;;;6.60;6.00;;;;;;;;;;5027549;28;20419;-87
2021/05/08 14:31:49;;;;;;;5.53;3.07;;;;;;;;;;5027688;28;20422;-85
2021/05/08 14:34:19;;;;;;;4.10;3.67;;;;;;;;;;5027619;28;20418;-86
2021/05/08 14:37:09;;;;;;;3.93;2.93;;;;;;;;;;5026421;28;20449;-85
2021/05/08 14:39:38;;;;;;;9.63;7.17;;;;;;;;;;5027300;28;20387;-86
2021/05/08 14:42:04;;;;;;;3.37;3.07;;;;;;;;;;5029343;28;20450;-85
2021/05/08 14:44:37;;;;;;;7.57;4.60;;;;;;;;;;5029862;28;20745;-85
2021/05/08 14:47:03;;;;;;;3.80;3.50;;;;;;;;;;5031816;28;20461;-85
2021/05/08 14:49:41;;;;;;;3.77;3.17;;;;;;;;;;5016369;28;20415;-86
2021/05/08 14:52:27;;;;;;;;;;;;;;;;;;;;;
2021/05/08 14:54:57;;;;;;;2.63;2.43;;;;;;;;;;5049477;28;20439;-86
2021/05/08 14:57:46;;;;;;;2.97;2.67;;;;;;;;;;5048978;28;20463;-85
2021/05/08 15:00:27;;;;;;;4.90;3.10;;;;;;;;;;5048427;28;20389;-87
2021/05/08 15:02:54;;;;;;;4.27;3.13;;;;;;;;;;5046184;28;20469;-86
2021/05/08 15:05:20;;;;;;;3.03;2.50;;;;;;;;;;5045992;28;20410;-86
2021/05/08 15:08:07;;;;;;;2.70;2.50;;;;;;;;;;5054220;28;20483;-85
2021/05/08 15:10:36;;;;;;;3.37;2.87;;;;;;;;;;5054905;28;20406;-87
2021/05/08 15:13:02;;;;;;;4.33;3.00;;;;;;;;;;5046253;28;20994;-85
2021/05/08 15:15:58;;;;;;;3.17;2.93;;;;;;;;;;5045411;28;20493;-86
2021/05/08 15:18:53;;;;;;;3.00;2.80;;;;;;;;;;5044390;28;20428;-86
2021/05/08 15:21:19;;;;;;;5.83;4.70;;;;;;;;;;5048316;28;20481;-85
2021/05/08 15:23:58;;;;;;;5.20;4.70;;;;;;;;;;5046032;28;20425;-87
2021/05/08 15:26:24;;;;;;;4.23;2.77;;;;;;;;;;5046135;28;20529;-85
2021/05/08 15:28:50;;;;;;;3.17;2.50;;;;;;;;;;5029263;28;20422;-86
2021/05/08 15:31:21;;;;;;;4.90;4.30;;;;;;;;;;5045595;28;20434;-87
2021/05/08 15:33:47;;;;;;;3.80;3.33;;;;;;;;;;5033021;28;20445;-85
2021/05/08 15:36:55;;;;;;;3.37;3.07;;;;;;;;;;5045712;28;20467;-85
2021/05/08 15:39:27;;;;;;;4.10;3.30;;;;;;;;;;5007859;28;20422;-86
2021/05/08 15:41:56;;;;;;;4.10;3.70;;;;;;;;;;4991269;28;20496;-86
2021/05/08 15:44:22;;;;;;;3.57;3.27;;;;;;;;;;4992750;28;20425;-84
2021/05/08 15:46:53;;;;;;;4.07;3.67;;;;;;;;;;5013094;28;20525;-86
2021/05/08 15:49:19;;;;;;;4.20;3.90;;;;;;;;;;5014724;28;20439;-86
2021/05/08 15:51:45;;;;;;;5.30;3.97;;;;;;;;;;4993819;28;20441;-87
2021/05/08 15:54:13;;;;;;;3.83;3.57;;;;;;;;;;5008643;28;20429;-86
2021/05/08 15:56:43;;;;;;;4.90;4.50;;;;;;;;;;5000775;28;20491;-84
2021/05/08 15:59:12;;;;;;;5.57;4.37;;;;;;;;;;4997371;28;20402;-85
2021/05/08 16:01:39;;;;;;;9.43;8.60;;;;;;;;;;5025859;28;20796;-86
2021/05/08 16:04:08;;;;;;;5.10;4.37;;;;;;;;;;5008003;28;20403;-87
2021/05/08 16:06:35;;;;;;;5.10;4.33;;;;;;;;;;5005726;28;20461;-87
2021/05/08 16:09:15;;;;;;;6.30;5.80;;;;;;;;;;4989888;28;20422;-85
2021/05/08 16:11:44;;;;;;;8.70;7.90;;;;;;;;;;5005132;28;20435;-85
2021/05/08 16:14:10;;;;;;;5.07;4.57;;;;;;;;;;5042576;28;20402;-86
2021/05/08 16:16:39;;;;;;;5.47;4.97;;;;;;;;;;5043220;28;20424;-85
2021/05/08 16:19:12;;;;;;;4.83;4.40;;;;;;;;;;5047923;28;20434;-86
2021/05/08 16:21:58;;;;;;;5.10;4.70;;;;;;;;;;5045832;28;20504;-87
2021/05/08 16:24:25;;;;;;;5.83;5.07;;;;;;;;;;5043403;28;20501;-86
2021/05/08 16:26:58;;;;;;;4.57;3.97;;;;;;;;;;5043686;28;20579;-85
2021/05/08 16:29:28;;;;;;;4.90;4.50;;;;;;;;;;5026349;28;20416;-86
2021/05/08 16:31:57;;;;;;;8.80;8.00;;;;;;;;;;5042705;28;20433;-86
2021/05/08 16:34:24;;;;;;;5.37;4.87;;;;;;;;;;5043059;28;20409;-86
2021/05/08 16:36:50;;;;;;;5.00;4.50;;;;;;;;;;5042071;28;20929;-85
2021/05/08 16:39:19;;;;;;;5.20;4.80;;;;;;;;;;5043959;28;20413;-85
2021/05/08 16:41:45;;;;;;;5.30;4.80;;;;;;;;;;5046234;28;20434;-85
2021/05/08 16:44:12;;;;;;;6.47;5.67;;;;;;;;;;5043774;28;20452;-86
2021/05/08 16:46:38;;;;;;;5.73;5.23;;;;;;;;;;5041436;28;20467;-85
2021/05/08 16:49:06;;;;;;;8.90;8.00;;;;;;;;;;5042067;28;20940;-86
2021/05/08 16:51:36;;;;;;;6.20;5.47;;;;;;;;;;5042185;28;20441;-86
2021/05/08 16:54:04;;;;;;;6.87;5.90;;;;;;;;;;5025284;28;20785;-85
2021/05/08 16:56:33;;;;;;;4.27;3.83;;;;;;;;;;5040299;28;20402;-85
2021/05/08 16:58:59;;;;;;;4.93;4.43;;;;;;;;;;5041304;28;20417;-85
2021/05/08 17:01:28;;;;;;;28.43;20.70;;;;;;;;;;5039559;28;20800;-85
2021/05/08 17:03:54;;;;;;;16.40;14.83;;;;;;;;;;5041104;28;20447;-87
2021/05/08 17:06:23;;;;;;;7.80;6.63;;;;;;;;;;5023880;28;20482;-85
2021/05/08 17:08:53;;;;;;;6.10;5.60;;;;;;;;;;5039815;28;20436;-84
2021/05/08 17:11:19;;;;;;;7.43;6.50;;;;;;;;;;5039805;28;20437;-86
2021/05/08 17:13:46;;;;;;;5.97;5.37;;;;;;;;;;5040912;28;20436;-86
2021/05/08 17:16:12;;;;;;;6.27;5.77;;;;;;;;;;5041982;28;20420;-87
2021/05/08 17:18:41;;;;;;;6.33;5.67;;;;;;;;;;5041389;28;20421;-86
2021/05/08 17:21:07;;;;;;;4.93;4.63;;;;;;;;;;5041882;28;20442;-85
2021/05/08 17:23:39;;;;;;;6.00;5.50;;;;;;;;;;5040266;28;20439;-86
2021/05/08 17:26:05;;;;;;;6.50;5.23;;;;;;;;;;5040425;28;20463;-86
2021/05/08 17:28:31;;;;;;;5.90;5.40;;;;;;;;;;5042650;28;20447;-85
2021/05/08 17:30:57;;;;;;;5.97;5.40;;;;;;;;;;5043799;28;20435;-87
2021/05/08 17:33:24;;;;;;;6.30;4.40;;;;;;;;;;5048289;28;20954;-84
2021/05/08 17:35:50;;;;;;;5.53;5.03;;;;;;;;;;5052330;28;20415;-85
2021/05/08 17:38:16;;;;;;;6.87;4.43;;;;;;;;;;5033461;28;20838;-85
2021/05/08 17:40:44;;;;;;;5.00;4.60;;;;;;;;;;5050309;28;20488;-85
2021/05/08 17:43:13;;;;;;;7.17;5.93;;;;;;;;;;5043149;28;20904;-85
2021/05/08 17:45:57;;;;;;;9.17;7.33;;;;;;;;;;5041364;28;20426;-85
2021/05/08 17:48:23;;;;;;;6.30;5.57;;;;;;;;;;5040730;28;20414;-86
2021/05/08 17:50:58;;;;;;;9.40;6.40;;;;;;;;;;5042915;28;20963;-83
2021/05/08 17:53:24;;;;;;;9.00;6.57;;;;;;;;;;5041094;28;20436;-87
2021/05/08 17:55:52;;;;;;;6.37;5.87;;;;;;;;;;5044987;28;20416;-85
2021/05/08 17:58:21;;;;;;;8.93;7.50;;;;;;;;;;5051205;28;20383;-86
2021/05/08 18:01:19;;;;;;;;;;;;;;;;;;;;;
2021/05/08 18:03:51;;;;;;;9.63;8.40;;;;;;;;;;5044930;28;20421;-85
2021/05/08 18:06:20;;;;;;;11.87;9.00;;;;;;;;;;5025496;28;20461;-85
2021/05/08 18:08:46;;;;;;;6.07;5.43;;;;;;;;;;5028373;28;20444;-85
2021/05/08 18:11:12;;;;;;;8.97;6.80;;;;;;;;;;5047909;28;20434;-85
2021/05/08 18:13:41;;;;;;;10.13;9.00;;;;;;;;;;5051115;28;20413;-85
2021/05/08 18:16:07;;;;;;;10.90;8.10;;;;;;;;;;5051001;28;20468;-83
2021/05/08 18:18:42;;;;;;;6.73;5.87;;;;;;;;;;5048170;28;20427;-85
2021/05/08 18:21:08;;;;;;;12.93;8.83;;;;;;;;;;5050323;28;20459;-86
2021/05/08 18:23:34;;;;;;;7.33;6.60;;;;;;;;;;5057143;28;20402;-85
2021/05/08 18:26:19;;;;;;;;;;;;;;;;;;;;;
2021/05/08 18:28:49;;;;;;;10.50;6.80;;;;;;;;;;5056518;28;20434;-86
2021/05/08 18:31:15;;;;;;;7.23;6.53;;;;;;;;;;5048680;28;20441;-85
2021/05/08 18:33:42;;;;;;;8.07;7.37;;;;;;;;;;5047565;28;20474;-85
2021/05/08 18:36:08;;;;;;;14.53;12.03;;;;;;;;;;5031564;28;20648;-83
2021/05/08 18:38:34;;;;;;;7.47;6.47;;;;;;;;;;5047568;28;20422;-84
2021/05/08 18:41:00;;;;;;;7.60;6.90;;;;;;;;;;5046138;28;20434;-85
2021/05/08 18:43:28;;;;;;;10.63;9.03;;;;;;;;;;5050782;28;20417;-85
2021/05/08 18:45:55;;;;;;;10.63;7.20;;;;;;;;;;5034751;28;20445;-84
2021/05/08 18:48:21;;;;;;;14.77;11.30;;;;;;;;;;5049512;28;20405;-84
2021/05/08 18:50:50;;;;;;;10.93;9.23;;;;;;;;;;5047976;28;20406;-85
2021/05/08 19:15:24;;;;;;;9.40;7.50;;;;;;;;;;4609681;22;20477;-85
2021/05/08 20:53:20;;;;;;;6.00;5.50;;;;;;;;;;4168977;22;20580;-85
2021/05/08 20:56:19;;;;;;;;;;;;;;;;;;;;;
2021/05/08 21:07:45;;;;;;;7.27;5.83;;;;;;;;;;4997746;28;20816;-85
2021/05/08 21:10:58;;;;;;;5.17;4.87;;;;;;;;;;4979402;28;20460;-85
2021/05/08 21:13:25;;;;;;;5.30;4.90;;;;;;;;;;4942676;28;20444;-85
2021/05/08 21:15:59;;;;;;;6.53;5.83;;;;;;;;;;4979886;28;20416;-85
2021/05/08 21:18:39;;;;;;;7.53;5.37;;;;;;;;;;5003196;28;20443;-85
2021/05/08 21:21:10;;;;;;;6.53;5.93;;;;;;;;;;4999092;28;20515;-85
2021/05/08 21:24:21;;;;;;;24.57;21.67;;;;;;;;;;4998589;28;20419;-87
2021/05/08 21:26:51;;;;;;;21.27;18.13;;;;;;;;;;4992570;28;20467;-86
2021/05/08 21:29:34;;;;;;;13.30;8.50;;;;;;;;;;4976418;28;20455;-85
2021/05/08 21:32:14;;;;;;;;;;;;;;;;;;;;;
2021/05/08 21:34:50;;;;;;;7.80;6.87;;;;;;;;;;5000172;28;20423;-85
2021/05/08 21:40:29;;;;;;;6.90;6.27;;;;;;;;;;5037980;26;20473;-84
2021/05/08 21:43:00;;;;;;;9.73;6.67;;;;;;;;;;5041321;28;20479;-86
2021/05/08 21:45:37;;;;;;;7.37;6.67;;;;;;;;;;5025989;28;20763;-86
2021/05/08 21:48:20;;;;;;;8.03;7.33;;;;;;;;;;5058606;28;20464;-85
2021/05/08 21:51:34;;;;;;;7.53;6.83;;;;;;;;;;5043549;28;20790;-87
2021/05/08 21:54:06;;;;;;;7.73;6.50;;;;;;;;;;5089910;23;20482;-85
2021/05/08 21:56:38;;;;;;;8.13;7.23;;;;;;;;;;5032665;28;20487;-85
2021/05/08 21:59:05;;;;;;;7.10;6.33;;;;;;;;;;5027885;28;20429;-84
2021/05/08 22:02:02;;;;;;;6.33;5.83;;;;;;;;;;5011039;28;20427;-85
2021/05/08 22:04:28;;;;;;;6.93;6.10;;;;;;;;;;5029044;28;20438;-84
2021/05/08 22:06:57;;;;;;;8.33;7.33;;;;;;;;;;5029865;28;20565;-83
2021/05/08 22:09:23;;;;;;;7.60;7.03;;;;;;;;;;5027976;28;20419;-85
2021/05/08 22:11:50;;;;;;;15.33;13.77;;;;;;;;;;5029265;28;20414;-84
2021/05/08 22:14:20;;;;;;;8.20;7.40;;;;;;;;;;5028221;28;20441;-86
2021/05/08 22:16:47;;;;;;;8.10;7.50;;;;;;;;;;5028837;28;20409;-85
2021/05/08 22:19:14;;;;;;;10.57;9.30;;;;;;;;;;5013930;28;20439;-85
2021/05/08 22:21:40;;;;;;;11.70;7.93;;;;;;;;;;5016578;28;20490;-86
2021/05/08 22:24:07;;;;;;;7.40;5.90;;;;;;;;;;5020055;28;20470;-83
2021/05/08 22:26:33;;;;;;;7.90;7.30;;;;;;;;;;5017706;28;20458;-84
2021/05/08 22:29:00;;;;;;;9.97;9.10;;;;;;;;;;5014018;28;20418;-85
2021/05/08 22:31:32;;;;;;;7.43;6.73;;;;;;;;;;5013421;28;20494;-84
2021/05/08 22:33:58;;;;;;;7.23;6.37;;;;;;;;;;5032957;28;20452;-83
2021/05/08 22:36:25;;;;;;;7.33;6.63;;;;;;;;;;5029107;28;20407;-83
2021/05/08 22:38:51;;;;;;;6.63;6.00;;;;;;;;;;5028116;28;20415;-83
2021/05/08 22:41:17;;;;;;;6.07;5.60;;;;;;;;;;5027151;28;20438;-84
2021/05/08 22:43:46;;;;;;;6.87;6.17;;;;;;;;;;5027760;28;20522;-83
2021/05/08 22:46:18;;;;;;;6.30;5.77;;;;;;;;;;5010612;28;20461;-83
2021/05/08 22:48:47;;;;;;;6.50;6.00;;;;;;;;;;5012366;28;20485;-85
2021/05/08 22:51:15;;;;;;;6.90;5.93;;;;;;;;;;5027970;28;20778;-84
2021/05/08 22:53:47;;;;;;;6.60;6.00;;;;;;;;;;5034383;28;20441;-84
2021/05/08 22:56:13;;;;;;;6.23;5.83;;;;;;;;;;5030840;28;20445;-85
2021/05/08 22:58:49;;;;;;;6.70;5.43;;;;;;;;;;5030589;28;20414;-84
2021/05/08 23:01:16;;;;;;;6.07;5.57;;;;;;;;;;5031627;28;20414;-83
2021/05/08 23:03:45;;;;;;;6.33;5.73;;;;;;;;;;5027727;28;20431;-84
2021/05/08 23:06:14;;;;;;;6.63;6.07;;;;;;;;;;5028347;28;20445;-85
2021/05/08 23:08:40;;;;;;;5.57;5.07;;;;;;;;;;5026937;28;20407;-86
2021/05/08 23:11:06;;;;;;;10.43;6.60;;;;;;;;;;5028259;28;20419;-85
2021/05/08 23:13:32;;;;;;;7.63;6.97;;;;;;;;;;5029041;28;20437;-85
2021/05/08 23:16:00;;;;;;;6.70;6.00;;;;;;;;;;5026401;28;20415;-85
2021/05/08 23:18:27;;;;;;;6.10;5.50;;;;;;;;;;5026418;28;20513;-84
2021/05/08 23:20:55;;;;;;;6.43;5.83;;;;;;;;;;5027355;28;20411;-84
2021/05/08 23:23:23;;;;;;;5.10;4.70;;;;;;;;;;5010261;28;20442;-84
2021/05/08 23:25:49;;;;;;;9.33;6.70;;;;;;;;;;5030090;28;20909;-84
2021/05/08 23:28:25;;;;;;;6.50;5.90;;;;;;;;;;5035563;28;20458;-86
2021/05/08 23:31:02;;;;;;;8.70;6.43;;;;;;;;;;5021089;28;20406;-87
2021/05/08 23:33:34;;;;;;;8.27;7.40;;;;;;;;;;5019785;28;20437;-85
2021/05/08 23:36:02;;;;;;;5.77;5.30;;;;;;;;;;5033749;28;20419;-86
2021/05/08 23:38:36;;;;;;;7.87;6.53;;;;;;;;;;5034609;28;20444;-85
2021/05/08 23:41:05;;;;;;;6.17;5.57;;;;;;;;;;5034062;28;20502;-84
2021/05/08 23:43:31;;;;;;;5.47;5.07;;;;;;;;;;5024062;28;20465;-84
2021/05/08 23:46:00;;;;;;;6.63;5.97;;;;;;;;;;5025229;28;20442;-86
2021/05/08 23:48:29;;;;;;;5.53;5.13;;;;;;;;;;5024020;28;20940;-85
2021/05/08 23:50:55;;;;;;;6.80;6.20;;;;;;;;;;5025234;28;20419;-84
2021/05/08 23:53:21;;;;;;;8.20;7.40;;;;;;;;;;5025126;28;20431;-84
2021/05/08 23:55:48;;;;;;;4.90;4.57;;;;;;;;;;5026063;28;20422;-85
2021/05/08 23:58:14;;;;;;;6.50;6.00;;;;;;;;;;5009390;28;20415;-86
